createdAt,value
2023-04-03T00:00:48.973Z,20.26
2023-04-03T00:02:54.075Z,20.25
2023-04-03T00:04:59.290Z,20.22
2023-04-03T00:07:04.340Z,20.2
2023-04-03T00:09:10.550Z,20.2
2023-04-03T00:11:15.786Z,20.19
2023-04-03T00:13:20.818Z,20.17
2023-04-03T00:15:26.016Z,20.15
2023-04-03T00:17:31.077Z,20.14
2023-04-03T00:19:36.292Z,20.13
2023-04-03T00:21:41.354Z,20.12
2023-04-03T00:23:46.386Z,20.1
2023-04-03T00:25:51.551Z,20.09
2023-04-03T00:27:56.750Z,20.08
2023-04-03T00:30:01.990Z,20.07
2023-04-03T00:32:07.012Z,20.07
2023-04-03T00:34:12.057Z,20.04
2023-04-03T00:36:17.132Z,20.03
2023-04-03T00:38:22.464Z,20.01
2023-04-03T00:40:27.513Z,20.01
2023-04-03T00:42:32.644Z,20
2023-04-03T00:44:37.845Z,19.98
2023-04-03T00:46:42.960Z,19.95
2023-04-03T00:48:48.126Z,19.93
2023-04-03T00:50:53.343Z,19.92
2023-04-03T00:52:58.471Z,19.89
2023-04-03T00:55:03.530Z,19.87
2023-04-03T00:57:08.725Z,19.84
2023-04-03T00:59:14.004Z,19.83
2023-04-03T01:01:19.094Z,19.83
2023-04-03T01:03:24.378Z,19.81
2023-04-03T01:05:29.431Z,19.8
2023-04-03T01:07:34.476Z,19.79
2023-04-03T01:09:39.572Z,19.79
2023-04-03T01:11:44.602Z,19.78
2023-04-03T01:13:49.620Z,19.78
2023-04-03T01:15:54.770Z,19.79
2023-04-03T01:18:00.055Z,19.79
2023-04-03T01:20:05.328Z,19.79
2023-04-03T01:22:10.387Z,19.77
2023-04-03T01:24:15.391Z,19.78
2023-04-03T01:26:20.486Z,19.77
2023-04-03T01:28:25.565Z,19.76
2023-04-03T01:30:30.963Z,19.76
2023-04-03T01:32:36.098Z,19.75
2023-04-03T01:34:41.380Z,19.74
2023-04-03T01:36:46.385Z,19.74
2023-04-03T01:38:51.438Z,19.73
2023-04-03T01:40:56.472Z,19.73
2023-04-03T01:43:01.670Z,19.73
2023-04-03T01:45:06.853Z,19.72
2023-04-03T01:47:11.865Z,19.7
2023-04-03T01:49:16.913Z,19.72
2023-04-03T01:51:22.119Z,19.65
2023-04-03T01:53:27.210Z,19.76
2023-04-03T01:55:32.258Z,19.71
2023-04-03T01:57:37.308Z,19.82
2023-04-03T01:59:42.366Z,19.85
2023-04-03T02:01:47.489Z,19.78
2023-04-03T02:03:52.574Z,19.87
2023-04-03T02:05:57.941Z,19.88
2023-04-03T02:08:02.990Z,19.81
2023-04-03T02:10:08.037Z,19.86
2023-04-03T02:12:13.115Z,19.88
2023-04-03T02:14:18.302Z,19.88
2023-04-03T02:16:23.425Z,19.87
2023-04-03T02:18:28.552Z,19.79
2023-04-03T02:20:33.602Z,19.83
2023-04-03T02:22:39.375Z,19.85
2023-04-03T02:24:44.468Z,19.72
2023-04-03T02:26:49.496Z,19.84
2023-04-03T02:28:54.630Z,19.83
2023-04-03T02:32:26.742Z,19.8
2023-04-03T02:34:32.111Z,19.79
2023-04-03T02:36:37.315Z,19.79
2023-04-03T02:38:42.421Z,19.79
2023-04-03T02:40:47.473Z,19.75
2023-04-03T02:42:52.522Z,19.74
2023-04-03T02:44:59.320Z,19.73
2023-04-03T02:47:05.592Z,19.72
2023-04-03T02:49:10.764Z,19.69
2023-04-03T02:51:15.875Z,19.68
2023-04-03T02:53:20.965Z,19.68
2023-04-03T02:55:26.005Z,19.73
2023-04-03T02:57:31.153Z,19.73
2023-04-03T02:59:36.514Z,19.72
2023-04-03T03:01:41.567Z,19.72
2023-04-03T03:03:46.808Z,19.64
2023-04-03T03:05:51.853Z,19.71
2023-04-03T03:07:56.909Z,19.71
2023-04-03T03:10:01.978Z,19.71
2023-04-03T03:12:07.012Z,19.7
2023-04-03T03:14:12.090Z,19.63
2023-04-03T03:16:17.185Z,19.65
2023-04-03T03:18:22.486Z,19.67
2023-04-03T03:20:27.553Z,19.7
2023-04-03T03:22:32.902Z,19.7
2023-04-03T03:24:38.033Z,19.63
2023-04-03T03:26:43.061Z,19.64
2023-04-03T03:28:48.189Z,19.68
2023-04-03T03:30:53.205Z,19.68
2023-04-03T03:32:58.322Z,19.68
2023-04-03T03:35:03.576Z,19.68
2023-04-03T03:37:08.677Z,19.65
2023-04-03T03:39:13.825Z,19.59
2023-04-03T03:41:18.882Z,19.63
2023-04-03T03:43:23.910Z,19.59
2023-04-03T03:45:29.085Z,19.66
2023-04-03T03:47:34.160Z,19.65
2023-04-03T03:49:39.399Z,19.65
2023-04-03T03:51:44.489Z,19.64
2023-04-03T03:53:49.534Z,19.58
2023-04-03T03:55:54.589Z,19.56
2023-04-03T03:57:59.687Z,19.61
2023-04-03T04:00:04.853Z,19.63
2023-04-03T04:02:09.912Z,19.63
2023-04-03T04:04:15.237Z,19.62
2023-04-03T04:06:20.548Z,19.62
2023-04-03T04:08:25.612Z,19.56
2023-04-03T04:10:30.661Z,19.61
2023-04-03T04:12:35.791Z,19.61
2023-04-03T04:14:40.817Z,19.61
2023-04-03T04:16:45.938Z,19.6
2023-04-03T04:18:51.211Z,19.6
2023-04-03T04:20:56.282Z,19.59
2023-04-03T04:23:01.332Z,19.58
2023-04-03T04:25:06.509Z,19.52
2023-04-03T04:27:11.628Z,19.58
2023-04-03T04:29:16.719Z,19.57
2023-04-03T04:31:21.771Z,19.58
2023-04-03T04:33:27.013Z,19.57
2023-04-03T04:35:32.202Z,19.57
2023-04-03T04:37:37.633Z,19.52
2023-04-03T04:39:42.696Z,19.56
2023-04-03T04:41:47.733Z,19.47
2023-04-03T04:43:52.819Z,19.54
2023-04-03T04:45:57.953Z,19.55
2023-04-03T04:48:03.036Z,19.55
2023-04-03T04:50:08.336Z,19.55
2023-04-03T04:52:13.571Z,19.44
2023-04-03T04:54:18.732Z,19.52
2023-04-03T04:56:23.794Z,19.54
2023-04-03T04:58:28.866Z,19.62
2023-04-03T05:00:33.878Z,19.65
2023-04-03T05:02:39.254Z,19.69
2023-04-03T05:04:44.517Z,19.76
2023-04-03T05:06:49.832Z,19.84
2023-04-03T05:08:54.875Z,19.9
2023-04-03T05:10:59.988Z,19.93
2023-04-03T05:13:05.065Z,20.02
2023-04-03T05:15:10.212Z,20.06
2023-04-03T05:17:15.360Z,20.07
2023-04-03T05:19:20.404Z,20.06
2023-04-03T05:21:25.443Z,20.15
2023-04-03T05:23:30.462Z,20.16
2023-04-03T05:25:35.677Z,20.17
2023-04-03T05:27:41.669Z,20.2
2023-04-03T05:29:46.708Z,20.22
2023-04-03T05:31:51.854Z,20.23
2023-04-03T05:33:57.288Z,20.24
2023-04-03T05:36:02.335Z,20.25
2023-04-03T05:38:07.609Z,20.26
2023-04-03T05:40:13.106Z,20.35
2023-04-03T05:42:21.275Z,20.36
2023-04-03T05:44:26.347Z,20.42
2023-04-03T05:46:31.449Z,20.44
2023-04-03T05:48:36.475Z,20.45
2023-04-03T05:50:41.506Z,20.46
2023-04-03T05:52:46.608Z,20.47
2023-04-03T05:54:51.811Z,20.47
2023-04-03T05:56:57.384Z,20.48
2023-04-03T05:59:02.612Z,20.47
2023-04-03T06:01:07.601Z,20.51
2023-04-03T06:03:12.788Z,20.43
2023-04-03T06:05:18.564Z,20.51
2023-04-03T06:07:23.659Z,20.48
2023-04-03T06:09:28.715Z,20.52
2023-04-03T06:11:34.075Z,20.53
2023-04-03T06:13:39.081Z,20.53
2023-04-03T06:15:44.193Z,20.5
2023-04-03T06:17:49.249Z,20.55
2023-04-03T06:19:54.474Z,20.56
2023-04-03T06:21:59.621Z,20.56
2023-04-03T06:24:04.665Z,20.58
2023-04-03T06:26:09.728Z,20.61
2023-04-03T06:28:14.930Z,20.61
2023-04-03T06:30:19.960Z,20.63
2023-04-03T06:32:25.037Z,20.63
2023-04-03T06:34:30.201Z,20.6
2023-04-03T06:36:35.348Z,20.65
2023-04-03T06:38:40.514Z,20.65
2023-04-03T06:40:45.628Z,20.67
2023-04-03T06:42:50.678Z,20.67
2023-04-03T06:44:55.718Z,20.66
2023-04-03T06:47:00.785Z,20.63
2023-04-03T06:49:05.938Z,20.71
2023-04-03T06:51:10.999Z,20.72
2023-04-03T06:53:16.132Z,20.73
2023-04-03T06:55:21.199Z,20.75
2023-04-03T06:57:26.442Z,20.74
2023-04-03T06:59:31.670Z,20.78
2023-04-03T07:01:36.763Z,20.79
2023-04-03T07:03:42.007Z,20.81
2023-04-03T07:05:47.121Z,20.84
2023-04-03T07:07:52.145Z,20.84
2023-04-03T07:09:57.206Z,20.87
2023-04-03T07:12:02.268Z,20.88
2023-04-03T07:14:07.427Z,20.9
2023-04-03T07:16:12.674Z,20.91
2023-04-03T07:18:17.946Z,20.92
2023-04-03T07:20:23.237Z,20.85
2023-04-03T07:22:28.357Z,20.91
2023-04-03T07:24:33.409Z,20.96
2023-04-03T07:26:38.527Z,20.97
2023-04-03T07:28:43.598Z,20.97
2023-04-03T07:30:48.636Z,20.98
2023-04-03T07:32:53.791Z,20.97
2023-04-03T07:34:59.134Z,21
2023-04-03T07:37:06.874Z,21
2023-04-03T07:39:11.970Z,21.01
2023-04-03T07:41:17.029Z,20.99
2023-04-03T07:43:22.145Z,20.98
2023-04-03T07:45:27.252Z,21.02
2023-04-03T07:47:32.541Z,20.98
2023-04-03T07:49:37.853Z,21.06
2023-04-03T07:51:42.953Z,21.08
2023-04-03T07:53:48.055Z,21.05
2023-04-03T07:55:53.106Z,21.14
2023-04-03T07:57:58.281Z,21.16
2023-04-03T08:00:03.437Z,21.21
2023-04-03T08:02:08.604Z,21.26
2023-04-03T08:04:13.843Z,21.31
2023-04-03T08:06:23.794Z,21.32
2023-04-03T08:08:50.073Z,21.31
2023-04-03T08:10:55.091Z,21.36
2023-04-03T08:13:00.147Z,21.38
2023-04-03T08:15:05.309Z,21.38
2023-04-03T08:17:10.354Z,21.37
2023-04-03T08:19:25.227Z,21.4
2023-04-03T08:21:31.145Z,21.43
2023-04-03T08:23:36.206Z,21.46
2023-04-03T08:25:41.350Z,21.47
2023-04-03T08:27:46.447Z,21.39
2023-04-03T08:29:51.533Z,21.36
2023-04-03T08:31:56.614Z,21.29
2023-04-03T08:34:01.669Z,21.19
2023-04-03T08:36:06.906Z,21.33
2023-04-03T08:38:12.114Z,21.38
2023-04-03T08:40:17.257Z,21.42
2023-04-03T08:42:22.319Z,21.46
2023-04-03T08:44:27.499Z,21.54
2023-04-03T08:46:32.642Z,21.59
2023-04-03T08:48:37.940Z,21.64
2023-04-03T08:50:43.121Z,21.7
2023-04-03T08:52:48.215Z,21.72
2023-04-03T08:54:53.307Z,21.78
2023-04-03T08:56:58.350Z,21.8
2023-04-03T08:59:03.604Z,21.79
2023-04-03T09:01:08.658Z,21.86
2023-04-03T09:03:13.808Z,21.88
2023-04-03T09:05:19.445Z,21.88
2023-04-03T09:07:26.728Z,21.91
2023-04-03T09:09:31.872Z,21.88
2023-04-03T09:11:37.041Z,21.92
2023-04-03T09:13:42.210Z,21.89
2023-04-03T09:15:47.309Z,21.93
2023-04-03T09:17:52.419Z,21.93
2023-04-03T09:19:57.630Z,21.94
2023-04-03T09:22:02.687Z,21.97
2023-04-03T09:24:07.782Z,21.96
2023-04-03T09:26:12.928Z,21.93
2023-04-03T09:28:18.103Z,21.96
2023-04-03T09:30:23.356Z,21.9
2023-04-03T09:32:28.495Z,21.97
2023-04-03T09:34:33.805Z,21.92
2023-04-03T09:36:38.867Z,22.02
2023-04-03T09:38:43.881Z,22.04
2023-04-03T09:40:48.909Z,22.07
2023-04-03T09:42:59.161Z,22.08
2023-04-03T09:45:06.070Z,22.06
2023-04-03T09:47:11.149Z,22.13
2023-04-03T09:49:16.506Z,22.16
2023-04-03T09:51:21.553Z,22.19
2023-04-03T09:53:26.586Z,22.19
2023-04-03T09:55:31.625Z,22.19
2023-04-03T09:57:36.813Z,22.22
2023-04-03T09:59:42.187Z,22.22
2023-04-03T10:01:47.250Z,22.23
2023-04-03T10:03:52.533Z,22.19
2023-04-03T10:05:57.561Z,22.25
2023-04-03T10:08:03.901Z,22.23
2023-04-03T10:10:09.418Z,22.24
2023-04-03T10:12:14.537Z,22.2
2023-04-03T10:14:19.593Z,22.17
2023-04-03T10:16:24.681Z,22.2
2023-04-03T10:18:29.996Z,22.3
2023-04-03T10:20:35.355Z,22.31
2023-04-03T10:22:41.397Z,22.26
2023-04-03T10:24:46.583Z,22.33
2023-04-03T10:26:51.623Z,22.36
2023-04-03T10:28:56.673Z,22.35
2023-04-03T10:31:01.844Z,22.4
2023-04-03T10:33:07.167Z,22.36
2023-04-03T10:35:12.218Z,22.41
2023-04-03T10:37:17.323Z,22.41
2023-04-03T10:39:22.420Z,22.45
2023-04-03T10:41:27.482Z,22.44
2023-04-03T10:43:32.518Z,22.48
2023-04-03T10:45:37.602Z,22.52
2023-04-03T10:47:42.847Z,22.54
2023-04-03T10:49:53.610Z,22.51
2023-04-03T10:52:04.350Z,22.51
2023-04-03T10:54:09.397Z,22.52
2023-04-03T10:56:14.528Z,22.47
2023-04-03T10:58:19.671Z,22.55
2023-04-03T11:00:24.795Z,22.65
2023-04-03T11:02:31.181Z,22.67
2023-04-03T11:04:36.989Z,22.69
2023-04-03T11:06:42.356Z,22.7
2023-04-03T11:08:47.421Z,22.68
2023-04-03T11:10:52.602Z,22.67
2023-04-03T11:12:57.658Z,22.66
2023-04-03T11:15:02.719Z,22.64
2023-04-03T11:17:07.871Z,22.64
2023-04-03T11:19:13.047Z,22.63
2023-04-03T11:21:18.065Z,22.64
2023-04-03T11:23:23.111Z,22.66
2023-04-03T11:25:33.135Z,22.67
2023-04-03T11:27:38.554Z,22.67
2023-04-03T11:29:43.613Z,22.65
2023-04-03T11:31:48.666Z,22.64
2023-04-03T11:33:53.854Z,22.61
2023-04-03T11:35:58.925Z,22.57
2023-04-03T11:38:06.698Z,22.71
2023-04-03T11:40:11.778Z,22.75
2023-04-03T11:42:16.905Z,22.78
2023-04-03T11:44:22.069Z,22.8
2023-04-03T11:46:27.172Z,22.8
2023-04-03T11:48:32.362Z,22.79
2023-04-03T11:50:37.610Z,22.77
2023-04-03T11:52:44.277Z,22.75
2023-04-03T11:54:49.653Z,22.74
2023-04-03T11:56:54.793Z,22.72
2023-04-03T11:58:59.993Z,22.65
2023-04-03T12:01:05.106Z,22.63
2023-04-03T12:03:10.248Z,22.67
2023-04-03T12:05:15.743Z,22.6
2023-04-03T12:07:20.921Z,22.65
2023-04-03T12:09:26.128Z,22.65
2023-04-03T12:11:31.233Z,22.61
2023-04-03T12:13:36.403Z,22.63
2023-04-03T12:15:41.521Z,22.67
2023-04-03T12:17:46.615Z,22.6
2023-04-03T12:19:51.783Z,22.59
2023-04-03T12:21:56.883Z,22.59
2023-04-03T12:24:02.015Z,22.52
2023-04-03T12:26:07.148Z,22.58
2023-04-03T12:28:12.231Z,22.56
2023-04-03T12:30:17.313Z,22.57
2023-04-03T12:32:22.486Z,22.56
2023-04-03T12:34:27.622Z,22.52
2023-04-03T12:36:32.685Z,22.52
2023-04-03T12:38:37.776Z,22.56
2023-04-03T12:40:42.971Z,22.54
2023-04-03T12:42:48.065Z,22.61
2023-04-03T12:44:53.188Z,22.63
2023-04-03T12:46:58.270Z,22.55
2023-04-03T12:49:03.448Z,22.67
2023-04-03T12:51:08.499Z,22.69
2023-04-03T12:53:13.540Z,22.67
2023-04-03T12:55:18.613Z,22.75
2023-04-03T12:57:23.880Z,22.75
2023-04-03T12:59:29.136Z,22.76
2023-04-03T13:01:34.232Z,22.78
2023-04-03T13:03:39.589Z,22.73
2023-04-03T13:05:44.960Z,22.73
2023-04-03T13:07:50.009Z,22.59
2023-04-03T13:09:55.229Z,22.52
2023-04-03T13:12:00.299Z,22.49
2023-04-03T13:14:05.378Z,22.43
2023-04-03T13:16:10.480Z,22.33
2023-04-03T13:18:15.751Z,22.37
2023-04-03T13:20:20.868Z,22.33
2023-04-03T13:22:26.069Z,22.2
2023-04-03T13:24:31.329Z,22.22
2023-04-03T13:26:36.484Z,22.28
2023-04-03T13:28:41.551Z,22.2
2023-04-03T13:30:46.635Z,22.28
2023-04-03T13:32:51.695Z,22.28
2023-04-03T13:35:00.344Z,22.26
2023-04-03T13:37:21.616Z,22.26
2023-04-03T13:39:26.740Z,22.28
2023-04-03T13:41:31.806Z,22.26
2023-04-03T13:43:36.876Z,22.25
2023-04-03T13:45:44.649Z,22.16
2023-04-03T13:47:49.869Z,22.22
2023-04-03T13:49:55.058Z,22.25
2023-04-03T13:52:07.081Z,22.24
2023-04-03T13:54:12.643Z,22.26
2023-04-03T13:56:17.697Z,22.3
2023-04-03T13:58:22.818Z,22.28
2023-04-03T14:00:27.852Z,22.35
2023-04-03T14:02:32.999Z,22.35
2023-04-03T14:04:38.262Z,22.35
2023-04-03T14:06:43.537Z,22.27
2023-04-03T14:08:48.579Z,22.32
2023-04-03T14:10:53.677Z,22.29
2023-04-03T14:12:58.839Z,22.25
2023-04-03T14:15:03.952Z,22.18
2023-04-03T14:17:09.181Z,22.13
2023-04-03T14:19:28.642Z,22.08
2023-04-03T14:21:33.774Z,22.08
2023-04-03T14:23:38.960Z,22.02
2023-04-03T14:25:44.114Z,22.04
2023-04-03T14:27:49.211Z,22.05
2023-04-03T14:29:54.182Z,22.05
2023-04-03T14:32:07.795Z,22.05
2023-04-03T14:34:19.132Z,22.06
2023-04-03T14:36:24.232Z,22.04
2023-04-03T14:38:29.507Z,22.06
2023-04-03T14:40:34.568Z,22.05
2023-04-03T14:42:40.250Z,21.96
2023-04-03T14:44:45.415Z,22.09
2023-04-03T14:49:01.541Z,22.21
2023-04-03T14:51:06.615Z,22.41
2023-04-03T14:53:11.667Z,22.46
2023-04-03T14:55:16.755Z,22.6
2023-04-03T14:57:21.852Z,22.7
2023-04-03T14:59:27.111Z,22.78
2023-04-03T15:01:32.262Z,22.86
2023-04-03T15:03:37.622Z,22.91
2023-04-03T15:05:43.360Z,22.95
2023-04-03T15:07:48.436Z,22.96
2023-04-03T15:09:53.588Z,22.97
2023-04-03T15:11:58.629Z,22.98
2023-04-03T15:14:03.751Z,22.99
2023-04-03T15:16:08.903Z,23.04
2023-04-03T15:18:14.244Z,23.04
2023-04-03T15:20:19.536Z,23.02
2023-04-03T15:22:24.701Z,23.02
2023-04-03T15:24:29.805Z,23.03
2023-04-03T15:26:34.977Z,22.96
2023-04-03T15:28:40.160Z,23.01
2023-04-03T15:30:45.243Z,23.01
2023-04-03T15:32:50.326Z,22.98
2023-04-03T15:34:56.613Z,23.1
2023-04-03T15:37:01.917Z,23.14
2023-04-03T15:39:07.182Z,23.17
2023-04-03T15:41:12.257Z,23.16
2023-04-03T15:43:17.329Z,23.17
2023-04-03T15:45:22.482Z,23.2
2023-04-03T15:47:27.682Z,23.25
2023-04-03T15:49:32.973Z,23.28
2023-04-03T15:51:38.025Z,23.29
2023-04-03T15:53:43.114Z,23.29
2023-04-03T15:55:48.287Z,23.29
2023-04-03T15:57:53.370Z,23.28
2023-04-03T15:59:58.726Z,23.32
2023-04-03T16:02:04.168Z,23.35
2023-04-03T16:04:09.266Z,23.3
2023-04-03T16:06:14.515Z,23.29
2023-04-03T16:08:19.578Z,23.06
2023-04-03T16:10:24.639Z,22.85
2023-04-03T16:12:29.839Z,22.57
2023-04-03T16:14:34.882Z,22.38
2023-04-03T16:16:40.005Z,22.28
2023-04-03T16:18:45.077Z,22.2
2023-04-03T16:20:50.101Z,22.11
2023-04-03T16:22:55.468Z,22.02
2023-04-03T16:25:00.611Z,21.91
2023-04-03T16:27:05.801Z,21.85
2023-04-03T16:29:10.959Z,21.8
2023-04-03T16:31:16.054Z,21.71
2023-04-03T16:33:21.192Z,21.68
2023-04-03T16:35:26.558Z,21.6
2023-04-03T16:37:31.950Z,21.62
2023-04-03T16:39:38.188Z,21.56
2023-04-03T16:41:43.369Z,21.41
2023-04-03T16:43:48.398Z,21.42
2023-04-03T16:45:53.458Z,21.39
2023-04-03T16:47:58.735Z,21.36
2023-04-03T16:50:04.075Z,21.31
2023-04-03T16:52:09.643Z,21.27
2023-04-03T16:54:14.683Z,21.25
2023-04-03T16:56:19.939Z,21.16
2023-04-03T16:58:25.270Z,21.21
2023-04-03T17:00:30.329Z,21.26
2023-04-03T17:02:35.674Z,21.23
2023-04-03T17:04:40.982Z,21.17
2023-04-03T17:06:46.084Z,21.04
2023-04-03T17:08:51.151Z,21.02
2023-04-03T17:10:56.200Z,20.98
2023-04-03T17:13:01.298Z,20.93
2023-04-03T17:15:06.416Z,20.84
2023-04-03T17:17:11.474Z,20.77
2023-04-03T17:19:16.607Z,20.85
2023-04-03T17:21:21.763Z,21.02
2023-04-03T17:23:26.867Z,21.27
2023-04-03T17:25:31.970Z,21.48
2023-04-03T17:27:37.069Z,21.68
2023-04-03T17:29:42.162Z,21.76
2023-04-03T17:31:47.425Z,21.97
2023-04-03T17:33:52.981Z,22.06
2023-04-03T17:35:58.116Z,22.17
2023-04-03T17:38:03.247Z,22.24
2023-04-03T17:40:08.420Z,22.25
2023-04-03T17:42:13.541Z,22.33
2023-04-03T17:44:18.663Z,22.45
2023-04-03T17:46:23.786Z,22.51
2023-04-03T17:48:29.107Z,22.63
2023-04-03T17:50:34.289Z,22.77
2023-04-03T17:52:39.344Z,22.89
2023-04-03T17:54:44.539Z,22.95
2023-04-03T17:56:49.797Z,22.98
2023-04-03T17:58:54.887Z,22.96
2023-04-03T18:01:00.058Z,22.79
2023-04-03T18:03:05.247Z,22.65
2023-04-03T18:05:10.601Z,22.47
2023-04-03T18:07:15.790Z,22.32
2023-04-03T18:09:20.898Z,22.21
2023-04-03T18:11:26.035Z,22.18
2023-04-03T18:13:31.209Z,22.3
2023-04-03T18:15:36.394Z,22.4
2023-04-03T18:17:42.278Z,22.47
2023-04-03T18:19:47.522Z,22.49
2023-04-03T18:21:52.619Z,22.5
2023-04-03T18:23:57.717Z,22.49
2023-04-03T18:26:02.827Z,22.49
2023-04-03T18:28:07.896Z,22.51
2023-04-03T18:30:13.902Z,22.53
2023-04-03T18:32:19.164Z,22.49
2023-04-03T18:34:24.356Z,22.5
2023-04-03T18:36:29.494Z,22.49
2023-04-03T18:38:34.638Z,22.46
2023-04-03T18:40:39.895Z,22.43
2023-04-03T18:42:45.809Z,22.41
2023-04-03T18:44:50.948Z,22.39
2023-04-03T18:46:56.091Z,22.36
2023-04-03T18:49:01.234Z,22.34
2023-04-03T18:51:06.447Z,22.37
2023-04-03T18:53:11.509Z,22.37
2023-04-03T18:55:16.708Z,22.35
2023-04-03T18:57:21.850Z,22.32
2023-04-03T18:59:26.986Z,22.27
2023-04-03T19:01:32.433Z,22.19
2023-04-03T19:03:38.074Z,22.13
2023-04-03T19:05:43.635Z,22.06
2023-04-03T19:07:49.129Z,22.02
2023-04-03T19:09:54.169Z,21.97
2023-04-03T19:11:59.267Z,21.93
2023-04-03T19:14:15.151Z,21.95
2023-04-03T19:16:21.268Z,22
2023-04-03T19:18:26.335Z,22.04
2023-04-03T19:20:31.414Z,22.11
2023-04-03T19:22:36.530Z,22.12
2023-04-03T19:24:41.805Z,22.11
2023-04-03T19:26:46.874Z,22.13
2023-04-03T19:28:51.937Z,22.17
2023-04-03T19:30:56.989Z,22.19
2023-04-03T19:33:02.143Z,22.2
2023-04-03T19:35:07.454Z,22.27
2023-04-03T19:37:12.617Z,22.4
2023-04-03T19:39:17.729Z,22.52
2023-04-03T19:41:22.911Z,22.64
2023-04-03T19:43:28.071Z,22.74
2023-04-03T19:45:33.126Z,22.84
2023-04-03T19:47:38.203Z,22.94
2023-04-03T19:49:43.530Z,23.03
2023-04-03T19:51:48.565Z,23.11
2023-04-03T19:53:53.641Z,23.17
2023-04-03T19:55:58.809Z,23.21
2023-04-03T19:58:04.045Z,23.26
2023-04-03T20:00:09.139Z,23.29
2023-04-03T20:02:14.420Z,23.34
2023-04-03T20:04:19.539Z,23.38
2023-04-03T20:06:24.821Z,23.41
2023-04-03T20:08:30.001Z,23.44
2023-04-03T20:10:35.161Z,23.46
2023-04-03T20:12:40.959Z,23.48
2023-04-03T20:14:46.346Z,23.51
2023-04-03T20:16:51.389Z,23.52
2023-04-03T20:18:56.636Z,23.53
2023-04-03T20:21:01.712Z,23.52
2023-04-03T20:23:06.979Z,23.53
2023-04-03T20:25:12.298Z,23.57
2023-04-03T20:27:48.476Z,23.62
2023-04-03T20:29:53.628Z,23.66
2023-04-03T20:31:58.790Z,23.68
2023-04-03T20:34:04.479Z,23.69
2023-04-03T20:36:09.545Z,23.71
2023-04-03T20:38:14.625Z,23.71
2023-04-03T20:40:20.261Z,23.73
2023-04-03T20:42:25.320Z,23.73
2023-04-03T20:44:30.439Z,23.75
2023-04-03T20:46:49.465Z,23.7
2023-04-03T20:48:58.210Z,23.58
2023-04-03T20:51:03.564Z,23.46
2023-04-03T20:53:08.986Z,23.34
2023-04-03T20:55:14.035Z,23.27
2023-04-03T20:57:19.129Z,23.19
2023-04-03T20:59:24.453Z,23.12
2023-04-03T21:01:29.683Z,23.06
2023-04-03T21:03:35.031Z,22.97
2023-04-03T21:05:40.257Z,22.92
2023-04-03T21:07:45.369Z,22.85
2023-04-03T21:09:50.533Z,22.8
2023-04-03T21:11:55.663Z,22.77
2023-04-03T21:14:00.792Z,22.71
2023-04-03T21:16:05.897Z,22.68
2023-04-03T21:18:11.313Z,22.63
2023-04-03T21:20:16.378Z,22.57
2023-04-03T21:22:21.497Z,22.52
2023-04-03T21:24:27.072Z,22.49
2023-04-03T21:26:32.313Z,22.46
2023-04-03T21:28:37.443Z,22.43
2023-04-03T21:30:43.140Z,22.41
2023-04-03T21:32:48.956Z,22.34
2023-04-03T21:34:54.079Z,22.32
2023-04-03T21:36:59.358Z,22.29
2023-04-03T21:39:04.570Z,22.27
2023-04-03T21:41:09.655Z,22.24
2023-04-03T21:43:14.706Z,22.25
2023-04-03T21:45:19.752Z,22.21
2023-04-03T21:47:24.834Z,22.16
2023-04-03T21:49:30.054Z,22.14
2023-04-03T21:51:35.097Z,22.12
2023-04-03T21:53:40.247Z,22.09
2023-04-03T21:55:45.433Z,22.06
2023-04-03T21:57:50.634Z,22.06
2023-04-03T21:59:55.849Z,22.06
2023-04-03T22:02:01.409Z,22.07
2023-04-03T22:04:06.763Z,22.05
2023-04-03T22:06:12.037Z,22
2023-04-03T22:08:17.216Z,21.98
2023-04-03T22:10:22.273Z,21.94
2023-04-03T22:12:27.416Z,21.93
2023-04-03T22:14:32.621Z,21.92
2023-04-03T22:16:38.166Z,21.92
2023-04-03T22:18:43.337Z,21.93
2023-04-03T22:20:48.391Z,21.89
2023-04-03T22:22:53.543Z,21.92
2023-04-03T22:24:58.589Z,21.9
2023-04-03T22:27:03.739Z,21.89
2023-04-03T22:29:08.851Z,21.86
2023-04-03T22:31:15.377Z,21.85
2023-04-03T22:33:21.141Z,21.82
2023-04-03T22:35:26.287Z,21.81
2023-04-03T22:37:31.597Z,21.78
2023-04-03T22:39:36.874Z,21.75
2023-04-03T22:41:41.932Z,21.73
2023-04-03T22:43:47.384Z,21.7
2023-04-03T22:45:52.506Z,21.71
2023-04-03T22:47:57.750Z,21.69
2023-04-03T22:50:03.028Z,21.66
2023-04-03T22:52:08.095Z,21.67
2023-04-03T22:54:13.149Z,21.67
2023-04-03T22:56:18.308Z,21.65
2023-04-03T22:58:23.466Z,21.64
2023-04-03T23:00:28.792Z,21.61
2023-04-03T23:02:33.930Z,21.61
2023-04-03T23:04:39.128Z,21.58
2023-04-03T23:06:44.412Z,21.58
2023-04-03T23:08:50.564Z,21.56
2023-04-03T23:10:55.835Z,21.54
2023-04-03T23:13:01.002Z,21.53
2023-04-03T23:15:06.137Z,21.53
2023-04-03T23:17:11.203Z,21.5
2023-04-03T23:19:17.446Z,21.47
2023-04-03T23:21:22.612Z,21.46
2023-04-03T23:23:28.134Z,21.46
2023-04-03T23:25:33.268Z,21.44
2023-04-03T23:27:38.517Z,21.42
2023-04-03T23:29:43.715Z,21.42
2023-04-03T23:31:48.930Z,21.39
2023-04-03T23:33:54.361Z,21.38
2023-04-03T23:35:59.825Z,21.36
2023-04-03T23:38:05.432Z,21.35
2023-04-03T23:40:10.483Z,21.34
2023-04-03T23:42:15.671Z,21.32
2023-04-03T23:44:20.820Z,21.32
2023-04-03T23:46:25.853Z,21.32
2023-04-03T23:48:31.533Z,21.29
2023-04-03T23:50:36.863Z,21.34
2023-04-03T23:52:42.907Z,21.32
2023-04-03T23:54:47.990Z,21.34
2023-04-03T23:56:53.124Z,21.33
2023-04-03T23:58:58.268Z,21.33
